Time;durP1;ratioP1;P1;durP2;ratioP2;P2;SDS_P1;SDS_P2;PMS_P1;PMS_P2;Temp;Humidity;BMP_temperature;BMP_pressure;BME280_temperature;BME280_humidity;BME280_pressure;Samples;Min_cycle;Max_cycle;Signal;HPM_P1;HPM_P2
2022/07/04 00:01:39;;;;;;;0.40;0.40;;;;;;;16.55;100.00;101598.06;6198443;28;20050;-76
2022/07/04 00:04:40;;;;;;;1.67;0.40;;;;;;;16.45;100.00;101589.84;6198875;28;20058;-76
2022/07/04 00:07:43;;;;;;;1.30;0.50;;;;;;;16.43;100.00;101598.84;6198917;28;20060;-76
2022/07/04 00:10:45;;;;;;;0.77;0.50;;;;;;;16.42;100.00;101598.00;6198751;28;20050;-76
2022/07/04 00:13:47;;;;;;;1.27;0.90;;;;;;;16.42;100.00;101605.13;6198895;28;20532;-76
2022/07/04 00:16:49;;;;;;;0.40;0.40;;;;;;;16.36;100.00;101608.16;6198793;28;20046;-76
2022/07/04 00:19:50;;;;;;;0.60;0.60;;;;;;;16.33;100.00;101601.25;6198874;28;20054;-76
2022/07/04 00:22:52;;;;;;;0.40;0.40;;;;;;;16.22;100.00;101607.25;6198701;28;20061;-76
2022/07/04 00:25:53;;;;;;;1.50;0.70;;;;;;;16.24;100.00;101617.75;6198222;28;20062;-76
2022/07/04 00:28:55;;;;;;;0.90;0.60;;;;;;;16.22;100.00;101611.69;6181002;28;20046;-76
2022/07/04 00:31:57;;;;;;;1.02;0.60;;;;;;;16.20;100.00;101606.47;6175011;28;20047;-76
2022/07/04 00:34:58;;;;;;;0.55;0.50;;;;;;;16.15;100.00;101600.63;6174127;28;20047;-76
2022/07/04 00:38:00;;;;;;;1.38;0.40;;;;;;;16.05;100.00;101604.78;6174283;28;20058;-76
2022/07/04 00:41:01;;;;;;;0.88;0.60;;;;;;;15.98;100.00;101606.13;6174156;28;20657;-76
2022/07/04 00:44:05;;;;;;;2.25;1.08;;;;;;;15.91;100.00;101610.97;6180065;28;20042;-76
2022/07/04 00:47:07;;;;;;;0.55;0.55;;;;;;;15.86;100.00;101609.53;6198010;28;20042;-76
2022/07/04 00:50:09;;;;;;;3.92;0.88;;;;;;;15.80;100.00;101607.25;6197885;28;20498;-76
2022/07/04 00:53:10;;;;;;;1.55;0.80;;;;;;;15.70;100.00;101613.13;6198121;28;20054;-76
2022/07/04 00:56:12;;;;;;;2.83;0.65;;;;;;;15.65;100.00;101609.91;6197858;28;20054;-76
2022/07/04 00:59:14;;;;;;;0.73;0.60;;;;;;;15.64;100.00;101610.00;6189137;28;20049;-76
2022/07/04 01:02:16;;;;;;;0.88;0.60;;;;;;;15.62;100.00;101607.41;6197974;28;20057;-76
2022/07/04 01:05:17;;;;;;;1.08;0.73;;;;;;;15.61;100.00;101607.50;6197575;28;20050;-76
2022/07/04 01:08:19;;;;;;;3.05;0.98;;;;;;;15.56;100.00;101602.47;6198090;28;20053;-76
2022/07/04 01:11:20;;;;;;;1.02;0.70;;;;;;;15.53;100.00;101613.25;6197467;28;20053;-76
2022/07/04 01:14:23;;;;;;;1.20;0.85;;;;;;;15.53;100.00;101605.31;6198663;28;20061;-76
2022/07/04 01:17:24;;;;;;;1.10;0.60;;;;;;;15.53;100.00;101613.25;6202864;28;20057;-75
2022/07/04 01:20:27;;;;;;;0.82;0.70;;;;;;;15.51;100.00;101603.72;6202723;28;20057;-76
2022/07/04 01:23:28;;;;;;;1.50;0.75;;;;;;;15.49;100.00;101598.50;6202706;28;20050;-76
2022/07/04 01:26:30;;;;;;;0.70;0.70;;;;;;;15.46;100.00;101606.63;6202385;28;20054;-76
2022/07/04 01:29:32;;;;;;;2.03;0.90;;;;;;;15.43;100.00;101597.06;6188322;28;20105;-75
2022/07/04 01:32:33;;;;;;;0.85;0.80;;;;;;;15.42;100.00;101603.31;6178029;28;20506;-76
2022/07/04 01:35:36;;;;;;;0.68;0.68;;;;;;;15.40;100.00;101604.38;6178486;28;20107;-76
2022/07/04 01:38:37;;;;;;;2.20;1.00;;;;;;;15.34;100.00;101602.06;6178171;28;20055;-76
2022/07/04 01:41:38;;;;;;;1.00;0.70;;;;;;;15.30;100.00;101597.88;6178214;28;20058;-75
2022/07/04 01:44:40;;;;;;;1.10;1.00;;;;;;;15.29;100.00;101602.34;6177912;28;20078;-76
2022/07/04 01:47:42;;;;;;;0.98;0.90;;;;;;;15.26;100.00;101596.34;6178276;28;20053;-76
2022/07/04 01:50:44;;;;;;;2.13;0.90;;;;;;;15.26;100.00;101599.00;6177730;28;20055;-76
2022/07/04 01:53:46;;;;;;;3.05;1.67;;;;;;;15.22;100.00;101604.50;6178274;28;20061;-78
2022/07/04 01:56:47;;;;;;;4.97;1.08;;;;;;;15.15;100.00;101605.78;6179716;28;20058;-78
2022/07/04 02:03:08;;;;;;;2.20;1.33;;;;;;;15.14;100.00;101600.59;6178983;28;20090;-77
2022/07/04 02:06:11;;;;;;;1.42;1.25;;;;;;;15.17;100.00;101600.41;6177680;28;20047;-76
2022/07/04 02:09:19;;;;;;;1.83;1.23;;;;;;;15.22;100.00;101603.66;6177726;28;20051;-76
2022/07/04 02:15:41;;;;;;;3.03;1.73;;;;;;;15.26;100.00;101605.19;6178638;28;20046;-78
2022/07/04 02:18:43;;;;;;;2.28;1.30;;;;;;;15.23;100.00;101597.41;6178797;28;20051;-78
2022/07/04 02:21:45;;;;;;;1.80;1.17;;;;;;;15.23;100.00;101598.25;6177180;28;20051;-76
2022/07/04 02:24:47;;;;;;;1.58;1.40;;;;;;;15.18;100.00;101602.97;6176770;28;20075;-75
2022/07/04 02:27:48;;;;;;;2.67;1.63;;;;;;;15.17;100.00;101606.56;6193678;28;20054;-76
2022/07/04 02:30:50;;;;;;;1.48;1.05;;;;;;;15.13;100.00;101604.19;6189633;28;20058;-76
2022/07/04 02:33:51;;;;;;;2.25;1.65;;;;;;;15.03;100.00;101606.50;6200850;28;20050;-75
2022/07/04 02:36:54;;;;;;;2.63;1.30;;;;;;;15.08;100.00;101606.25;6201089;28;20058;-76
2022/07/04 02:39:55;;;;;;;2.10;1.50;;;;;;;15.11;100.00;101608.72;6178958;28;20538;-76
2022/07/04 02:42:56;;;;;;;1.55;1.15;;;;;;;15.08;100.00;101611.53;6197016;28;20042;-75
2022/07/04 02:45:58;;;;;;;2.53;1.65;;;;;;;15.01;100.00;101611.06;6176404;28;20423;-76
2022/07/04 02:48:59;;;;;;;1.67;1.58;;;;;;;14.96;100.00;101599.88;6176983;28;20047;-76
2022/07/04 02:52:02;;;;;;;2.42;1.90;;;;;;;14.83;100.00;101602.38;6176608;28;20046;-76
2022/07/04 02:55:04;;;;;;;1.92;1.70;;;;;;;14.84;100.00;101598.78;6176283;28;20047;-76
2022/07/04 02:58:05;;;;;;;2.00;1.48;;;;;;;14.91;100.00;101612.53;6176358;28;20050;-76
2022/07/04 03:01:07;;;;;;;3.30;2.35;;;;;;;14.92;100.00;101609.78;6197460;28;20073;-75
2022/07/04 03:04:08;;;;;;;1.88;1.55;;;;;;;14.91;100.00;101617.81;6200503;28;20410;-76
2022/07/04 03:07:11;;;;;;;2.67;1.70;;;;;;;14.89;100.00;101628.47;6200151;28;20061;-76
2022/07/04 03:10:12;;;;;;;3.38;1.95;;;;;;;14.89;100.00;101630.28;6200267;28;20050;-76
2022/07/04 03:13:14;;;;;;;2.60;1.60;;;;;;;14.89;100.00;101627.63;6200376;28;20049;-76
2022/07/04 03:16:15;;;;;;;2.35;1.80;;;;;;;14.84;100.00;101634.97;6200195;28;20057;-76
2022/07/04 03:19:17;;;;;;;3.55;1.90;;;;;;;14.80;100.00;101647.53;6199966;28;20054;-76
2022/07/04 03:22:20;;;;;;;1.63;1.50;;;;;;;14.80;100.00;101636.94;6199865;28;20391;-76
2022/07/04 03:25:21;;;;;;;2.35;1.60;;;;;;;14.77;100.00;101647.72;6199830;28;20057;-76
2022/07/04 03:28:23;;;;;;;2.95;1.80;;;;;;;14.78;100.00;101652.06;6197426;28;20062;-76
2022/07/04 03:31:25;;;;;;;4.05;2.50;;;;;;;14.75;100.00;101665.47;6175586;28;20384;-75
2022/07/04 03:34:27;;;;;;;2.75;2.13;;;;;;;14.73;100.00;101666.50;6175441;28;20050;-76
2022/07/04 03:37:29;;;;;;;4.65;2.25;;;;;;;14.71;100.00;101669.22;6182772;28;20055;-76
2022/07/04 03:40:32;;;;;;;2.67;2.20;;;;;;;14.73;100.00;101667.34;6198868;28;20054;-76
2022/07/04 03:43:33;;;;;;;3.40;1.77;;;;;;;14.74;100.00;101670.84;6190028;28;20073;-75
2022/07/04 03:46:35;;;;;;;3.60;2.28;;;;;;;14.69;100.00;101671.97;6199658;28;20051;-76
2022/07/04 03:49:36;;;;;;;2.92;2.20;;;;;;;14.69;100.00;101676.41;6197484;28;20399;-75
2022/07/04 03:52:39;;;;;;;3.80;2.38;;;;;;;14.70;100.00;101676.31;6199026;28;20046;-76
2022/07/04 03:55:40;;;;;;;4.07;2.40;;;;;;;14.70;100.00;101684.25;6191155;28;20054;-76
2022/07/04 03:58:42;;;;;;;1.83;1.38;;;;;;;14.68;100.00;101688.78;6197926;28;20046;-75
2022/07/04 04:01:43;;;;;;;3.97;3.08;;;;;;;14.63;100.00;101701.41;6198695;28;20185;-76
2022/07/04 04:08:05;;;;;;;3.83;2.58;;;;;;;14.63;100.00;101709.34;6200703;28;20054;-78
2022/07/04 04:11:06;;;;;;;3.65;2.38;;;;;;;14.65;100.00;101711.91;6200426;28;20046;-78
2022/07/04 04:14:08;;;;;;;7.43;3.00;;;;;;;14.63;100.00;101706.69;6200057;28;20050;-77
2022/07/04 04:17:09;;;;;;;4.72;2.72;;;;;;;14.65;100.00;101704.81;6200047;28;20062;-78
2022/07/04 04:20:11;;;;;;;5.97;2.70;;;;;;;14.67;100.00;101708.25;6199935;28;20046;-78
2022/07/04 04:23:13;;;;;;;3.47;2.35;;;;;;;14.70;100.00;101704.56;6200190;28;20049;-78
2022/07/04 04:26:16;;;;;;;8.52;3.08;;;;;;;14.70;100.00;101713.34;6199293;28;20516;-78
2022/07/04 04:29:17;;;;;;;5.15;2.75;;;;;;;14.67;100.00;101715.31;6199248;28;20490;-78
2022/07/04 04:32:19;;;;;;;5.78;3.53;;;;;;;14.69;100.00;101724.88;6191232;28;20053;-78
2022/07/04 04:35:20;;;;;;;4.07;2.92;;;;;;;14.73;100.00;101730.84;6199994;28;20054;-78
2022/07/04 04:38:23;;;;;;;4.38;3.10;;;;;;;14.76;100.00;101740.41;6199836;28;20058;-78
2022/07/04 04:41:24;;;;;;;5.95;3.90;;;;;;;14.75;100.00;101736.06;6199641;28;20425;-78
2022/07/04 04:44:25;;;;;;;4.43;3.03;;;;;;;14.79;100.00;101735.81;6199558;28;20050;-78
2022/07/04 04:47:27;;;;;;;3.15;2.50;;;;;;;14.79;100.00;101735.81;6199216;28;20049;-78
2022/07/04 04:50:29;;;;;;;2.70;2.42;;;;;;;14.80;100.00;101732.22;6199232;28;20050;-78
2022/07/04 04:53:31;;;;;;;3.75;2.80;;;;;;;14.80;100.00;101736.66;6199142;28;20050;-79
2022/07/04 04:56:33;;;;;;;8.32;3.10;;;;;;;14.82;100.00;101740.94;6199380;28;20050;-78
2022/07/04 04:59:34;;;;;;;5.07;3.30;;;;;;;14.90;100.00;101732.59;6181194;28;20523;-78
2022/07/04 05:02:36;;;;;;;5.03;3.45;;;;;;;14.84;100.00;101738.19;6175561;28;20650;-78
2022/07/04 05:05:37;;;;;;;7.13;3.22;;;;;;;14.82;100.00;101733.00;6181245;28;20055;-78
2022/07/04 05:08:40;;;;;;;8.73;4.22;;;;;;;14.93;100.00;101735.03;6199614;28;20057;-78
2022/07/04 05:11:41;;;;;;;6.60;3.50;;;;;;;14.90;100.00;101724.63;6199981;28;20046;-78
2022/07/04 05:14:42;;;;;;;5.43;3.92;;;;;;;14.90;100.00;101728.13;6199289;28;20061;-78
2022/07/04 05:17:44;;;;;;;3.90;2.38;;;;;;;14.96;100.00;101724.28;6199219;28;20054;-78
2022/07/04 05:20:45;;;;;;;4.78;3.38;;;;;;;15.03;100.00;101725.63;6198837;28;20051;-77
2022/07/04 05:23:48;;;;;;;6.07;3.92;;;;;;;15.09;100.00;101735.91;6198557;28;20047;-78
2022/07/04 05:26:49;;;;;;;5.10;2.65;;;;;;;15.12;100.00;101741.00;6198890;28;20050;-77
2022/07/04 05:29:50;;;;;;;3.90;2.75;;;;;;;15.13;100.00;101732.13;6176064;28;20063;-78
2022/07/04 05:32:52;;;;;;;4.28;3.05;;;;;;;15.14;100.00;101738.28;6174203;28;20411;-77
2022/07/04 05:35:53;;;;;;;5.28;3.60;;;;;;;15.18;100.00;101734.53;6174931;28;20050;-77
2022/07/04 05:38:56;;;;;;;6.70;4.30;;;;;;;15.24;100.00;101736.81;6174383;28;20058;-77
2022/07/04 05:41:58;;;;;;;5.63;3.08;;;;;;;15.23;100.00;101732.47;6174663;28;20053;-77
2022/07/04 05:44:59;;;;;;;5.05;3.83;;;;;;;15.31;100.00;101729.38;6174631;28;20057;-77
2022/07/04 05:48:00;;;;;;;4.75;3.08;;;;;;;15.35;100.00;101730.88;6174418;28;20054;-77
2022/07/04 05:51:03;;;;;;;4.35;2.45;;;;;;;15.41;100.00;101717.31;6174511;28;20055;-77
2022/07/04 05:54:06;;;;;;;7.18;3.80;;;;;;;15.47;100.00;101723.09;6173999;28;20054;-77
2022/07/04 05:57:07;;;;;;;4.43;2.38;;;;;;;15.52;100.00;101722.81;6176075;28;20042;-77
2022/07/04 06:00:11;;;;;;;4.38;3.17;;;;;;;15.56;100.00;101734.94;6174720;28;20057;-77
2022/07/04 06:03:12;;;;;;;4.05;2.80;;;;;;;15.61;100.00;101732.88;6178950;28;20051;-77
2022/07/04 06:06:15;;;;;;;4.95;3.63;;;;;;;15.61;100.00;101724.94;6178101;28;20729;-77
2022/07/04 06:09:18;;;;;;;5.25;3.30;;;;;;;15.62;100.00;101728.44;6178751;28;20422;-77
2022/07/04 06:12:19;;;;;;;7.65;3.90;;;;;;;15.71;100.00;101733.22;6178388;28;20046;-77
2022/07/04 06:15:20;;;;;;;5.18;2.83;;;;;;;15.76;100.00;101741.78;6178615;28;20414;-77
2022/07/04 06:18:22;;;;;;;4.43;2.60;;;;;;;15.77;100.00;101732.88;6178458;28;20069;-77
2022/07/04 06:21:23;;;;;;;4.60;2.90;;;;;;;15.79;100.00;101744.22;6178156;28;20062;-77
2022/07/04 06:24:26;;;;;;;2.78;1.98;;;;;;;15.87;100.00;101743.78;6177826;28;20050;-77
2022/07/04 06:27:28;;;;;;;3.20;2.20;;;;;;;15.91;100.00;101743.50;6179431;28;20054;-77
2022/07/04 06:30:29;;;;;;;6.72;2.80;;;;;;;16.00;100.00;101733.31;6178066;28;20081;-77
2022/07/04 06:33:31;;;;;;;2.85;2.17;;;;;;;16.14;100.00;101735.97;6177849;28;20388;-76
2022/07/04 06:36:32;;;;;;;5.00;2.33;;;;;;;16.18;100.00;101734.84;6177218;28;20058;-76
2022/07/04 06:39:34;;;;;;;2.33;1.75;;;;;;;16.19;100.00;101740.03;6177386;28;20085;-77
2022/07/04 06:42:35;;;;;;;2.17;1.83;;;;;;;16.30;100.00;101741.19;6179723;28;20042;-77
2022/07/04 06:45:37;;;;;;;2.85;2.00;;;;;;;16.36;100.00;101749.63;6187747;28;20458;-77
2022/07/04 06:48:38;;;;;;;2.22;1.20;;;;;;;16.42;100.00;101743.94;6199171;28;20422;-77
2022/07/04 06:51:40;;;;;;;2.55;1.63;;;;;;;16.54;100.00;101749.44;6199821;28;20042;-76
2022/07/04 06:54:42;;;;;;;5.93;1.65;;;;;;;16.61;100.00;101740.13;6198682;28;20054;-76
2022/07/04 06:57:44;;;;;;;1.35;1.25;;;;;;;16.72;100.00;101743.00;6206967;28;20054;-76
2022/07/04 07:00:45;;;;;;;2.83;1.60;;;;;;;16.80;100.00;101747.81;6209718;28;20046;-76
2022/07/04 07:03:46;;;;;;;3.22;1.25;;;;;;;16.81;100.00;101749.53;6210849;28;20045;-76
2022/07/04 07:06:48;;;;;;;1.90;1.23;;;;;;;16.72;97.20;101746.50;6209889;28;20054;-77
2022/07/04 07:09:50;;;;;;;2.67;1.08;;;;;;;16.76;97.11;101743.63;6200632;28;20050;-77
2022/07/04 07:12:52;;;;;;;2.08;0.93;;;;;;;16.79;96.37;101732.84;6200512;28;20395;-79
2022/07/04 07:15:53;;;;;;;1.27;0.88;;;;;;;16.89;98.23;101728.63;6202301;28;20058;-77
2022/07/04 07:18:54;;;;;;;0.63;0.50;;;;;;;17.05;94.36;101720.56;6211215;28;20087;-77
2022/07/04 07:21:56;;;;;;;2.42;0.77;;;;;;;16.99;91.37;101722.66;6212155;28;20390;-78
2022/07/04 07:24:59;;;;;;;0.93;0.80;;;;;;;16.99;90.82;101730.63;6210020;28;20054;-76
2022/07/04 07:28:00;;;;;;;1.90;0.75;;;;;;;17.03;89.53;101722.44;6216841;28;20485;-76
2022/07/04 07:31:02;;;;;;;7.70;0.88;;;;;;;17.10;88.58;101729.06;6224117;28;20053;-77
2022/07/04 07:34:03;;;;;;;1.13;0.70;;;;;;;17.23;88.02;101729.97;6223935;28;20046;-76
2022/07/04 07:37:04;;;;;;;4.78;0.70;;;;;;;17.29;88.03;101731.38;6224137;28;20057;-77
2022/07/04 07:40:09;;;;;;;0.77;0.70;;;;;;;17.28;90.80;101725.19;6224128;28;20042;-76
2022/07/04 07:43:10;;;;;;;0.47;0.47;;;;;;;17.25;89.52;101723.59;6224222;28;20046;-76
2022/07/04 07:46:11;;;;;;;1.15;0.60;;;;;;;17.28;87.34;101727.88;6223897;28;20046;-76
2022/07/04 07:49:13;;;;;;;4.88;0.60;;;;;;;17.27;84.18;101723.50;6223953;28;20050;-76
2022/07/04 07:52:15;;;;;;;0.60;0.55;;;;;;;17.37;82.99;101716.63;6223595;28;20053;-76
2022/07/04 07:55:18;;;;;;;1.33;0.77;;;;;;;17.45;84.87;101719.63;6223765;28;20080;-76
2022/07/04 07:58:19;;;;;;;0.90;0.70;;;;;;;17.56;84.12;101721.56;6181657;28;20077;-76
2022/07/04 08:01:21;;;;;;;0.40;0.40;;;;;;;17.58;84.76;101727.63;6174946;28;20062;-77
2022/07/04 08:04:37;;;;;;;0.50;0.50;;;;;;;17.68;79.18;101723.41;6175016;28;20046;-75
2022/07/04 08:07:39;;;;;;;0.60;0.50;;;;;;;17.69;80.60;101727.75;6176092;28;20059;-77
2022/07/04 08:10:42;;;;;;;1.80;0.50;;;;;;;17.81;81.27;101723.47;6175878;28;20418;-77
2022/07/04 08:13:43;;;;;;;0.80;0.50;;;;;;;17.91;81.17;101727.19;6198026;28;20387;-75
2022/07/04 08:16:45;;;;;;;3.33;0.55;;;;;;;18.04;76.32;101721.03;6223425;28;20057;-75
2022/07/04 08:19:47;;;;;;;1.45;0.40;;;;;;;18.14;74.58;101722.94;6222952;28;20053;-74
2022/07/04 08:22:49;;;;;;;0.73;0.50;;;;;;;18.13;74.97;101721.22;6222907;28;20042;-75
2022/07/04 08:25:51;;;;;;;3.42;0.82;;;;;;;18.14;76.07;101711.44;6216605;28;20049;-75
2022/07/04 08:28:55;;;;;;;0.30;0.30;;;;;;;18.18;73.36;101724.44;6175405;28;20055;-75
2022/07/04 08:31:56;;;;;;;0.65;0.50;;;;;;;18.18;71.89;101716.44;6174302;28;20051;-75
2022/07/04 08:34:58;;;;;;;0.73;0.43;;;;;;;18.24;71.75;101716.00;6174090;28;20131;-74
2022/07/04 08:37:59;;;;;;;0.40;0.40;;;;;;;18.36;69.84;101719.63;6174379;28;20047;-75
2022/07/04 08:41:04;;;;;;;0.25;0.25;;;;;;;18.31;69.08;101712.94;6174390;28;20059;-75
2022/07/04 08:44:07;;;;;;;2.83;0.40;;;;;;;18.22;67.44;101707.28;6174138;28;20420;-75
2022/07/04 08:47:10;;;;;;;0.38;0.38;;;;;;;18.25;70.03;101704.38;6174066;28;20042;-75
2022/07/04 08:50:13;;;;;;;0.68;0.40;;;;;;;18.43;69.03;101714.69;6174129;28;20051;-78
2022/07/04 08:53:22;;;;;;;0.70;0.43;;;;;;;18.51;70.54;101697.22;6174047;28;20529;-76
2022/07/04 08:59:48;;;;;;;0.40;0.40;;;;;;;18.68;69.90;101713.81;6174819;28;20082;-76
2022/07/04 09:02:50;;;;;;;0.70;0.50;;;;;;;18.72;71.26;101710.84;6174174;28;20062;-74
2022/07/04 09:05:51;;;;;;;0.70;0.32;;;;;;;18.79;64.93;101715.72;6173590;28;20062;-73
2022/07/04 09:08:54;;;;;;;1.17;0.32;;;;;;;18.91;65.81;101714.84;6173970;28;20065;-75
2022/07/04 09:11:57;;;;;;;0.68;0.40;;;;;;;18.90;64.53;101705.16;6173557;28;20047;-75
2022/07/04 09:14:59;;;;;;;0.52;0.40;;;;;;;18.92;66.88;101705.88;6173846;28;20047;-76
2022/07/04 09:18:02;;;;;;;0.30;0.30;;;;;;;19.05;64.95;101693.38;6173721;28;20054;-76
2022/07/04 09:21:05;;;;;;;3.70;0.50;;;;;;;19.10;64.61;101695.69;6173866;28;20054;-75
2022/07/04 09:24:06;;;;;;;0.55;0.30;;;;;;;19.16;64.04;101700.53;6178960;28;20405;-75
2022/07/04 09:27:09;;;;;;;0.43;0.43;;;;;;;19.23;63.68;101702.66;6204381;28;20417;-74
2022/07/04 09:30:12;;;;;;;0.30;0.30;;;;;;;19.32;62.64;101695.78;6207508;28;20059;-74
2022/07/04 09:33:13;;;;;;;0.45;0.40;;;;;;;19.28;62.77;101696.97;6207673;28;20489;-74
2022/07/04 09:36:16;;;;;;;1.27;0.43;;;;;;;19.35;62.72;101703.56;6209994;28;20050;-75
2022/07/04 09:39:20;;;;;;;1.05;0.32;;;;;;;19.47;62.74;101694.63;6211832;28;20497;-74
2022/07/04 09:42:23;;;;;;;1.27;0.65;;;;;;;19.57;61.01;101691.25;6202263;28;20053;-75
2022/07/04 09:45:25;;;;;;;2.08;0.45;;;;;;;19.62;60.99;101691.78;6201983;28;20047;-75
2022/07/04 09:48:27;;;;;;;0.40;0.30;;;;;;;19.72;59.72;101695.47;6198158;28;20046;-76
2022/07/04 09:51:40;;;;;;;0.25;0.20;;;;;;;19.75;59.54;101696.06;6204187;28;20046;-74
2022/07/04 09:54:41;;;;;;;1.02;0.40;;;;;;;19.72;60.85;101690.13;6211383;28;20046;-73
2022/07/04 09:57:46;;;;;;;0.20;0.20;;;;;;;19.89;58.99;101696.81;6208066;28;20072;-77
2022/07/04 10:00:49;;;;;;;0.28;0.25;;;;;;;19.97;59.02;101687.25;6211630;28;20061;-74
2022/07/04 10:03:52;;;;;;;1.00;0.35;;;;;;;20.01;58.91;101694.03;6212341;28;20050;-75
2022/07/04 10:06:53;;;;;;;0.85;0.40;;;;;;;20.05;59.03;101685.81;6213701;28;20542;-76
2022/07/04 10:09:55;;;;;;;0.40;0.38;;;;;;;20.11;58.68;101685.31;6198796;28;20062;-74
2022/07/04 10:12:59;;;;;;;0.25;0.25;;;;;;;20.20;58.74;101679.25;6192834;28;20050;-74
2022/07/04 10:16:00;;;;;;;1.00;0.30;;;;;;;20.24;59.38;101678.03;6201298;28;20057;-75
2022/07/04 10:19:03;;;;;;;0.90;0.43;;;;;;;20.39;59.71;101681.31;6189989;28;20051;-75
2022/07/04 10:22:05;;;;;;;0.30;0.30;;;;;;;20.51;59.50;101675.03;6177158;28;20053;-75
2022/07/04 10:25:08;;;;;;;1.70;0.60;;;;;;;20.55;58.24;101672.97;6178260;28;20038;-75
2022/07/04 10:28:11;;;;;;;0.30;0.30;;;;;;;20.69;57.43;101673.53;6193858;28;20058;-74
2022/07/04 10:31:13;;;;;;;1.90;0.60;;;;;;;20.76;58.29;101674.75;6201169;28;20062;-74
2022/07/04 10:34:14;;;;;;;1.65;0.75;;;;;;;20.87;57.14;101671.19;6201248;28;20504;-75
2022/07/04 10:37:16;;;;;;;0.20;0.20;;;;;;;20.71;57.68;101674.28;6201199;28;20053;-75
2022/07/04 10:40:47;;;;;;;0.50;0.35;;;;;;;20.47;59.34;101669.06;6201210;28;20054;-74
2022/07/04 10:44:00;;;;;;;1.75;0.80;;;;;;;20.39;60.40;101673.28;6195588;28;20051;-79
2022/07/04 10:47:01;;;;;;;0.35;0.35;;;;;;;20.47;59.77;101666.41;6178012;28;20080;-75
2022/07/04 10:50:03;;;;;;;1.17;0.30;;;;;;;20.58;59.32;101662.03;6177251;28;20047;-78
2022/07/04 10:53:13;;;;;;;0.40;0.35;;;;;;;20.64;58.86;101666.88;6179979;28;20046;-77
2022/07/04 10:56:36;;;;;;;0.28;0.28;;;;;;;20.62;59.00;101668.81;6178411;28;20059;-75
2022/07/04 10:59:39;;;;;;;0.40;0.40;;;;;;;20.94;57.50;101664.38;6176171;28;20059;-74
2022/07/04 11:02:41;;;;;;;0.32;0.32;;;;;;;21.08;55.99;101662.38;6177236;28;20414;-75
2022/07/04 11:05:42;;;;;;;0.30;0.30;;;;;;;20.83;56.57;101660.88;6175988;28;20495;-74
2022/07/04 11:09:16;;;;;;;0.35;0.30;;;;;;;20.71;58.09;101662.72;6176183;28;20055;-75
2022/07/04 11:12:18;;;;;;;0.47;0.20;;;;;;;20.80;58.25;101648.59;6178196;28;20058;-77
2022/07/04 11:16:00;;;;;;;2.05;0.20;;;;;;;20.88;57.67;101653.31;6178487;28;21729;-77
2022/07/04 11:19:01;;;;;;;0.70;0.35;;;;;;;20.87;58.48;101656.97;6191106;28;20046;-75
2022/07/04 11:22:04;;;;;;;1.38;0.60;;;;;;;20.96;57.17;101651.72;6200280;28;20054;-76
2022/07/04 11:25:06;;;;;;;0.30;0.30;;;;;;;20.93;58.05;101657.31;6179142;28;20194;-76
2022/07/04 11:28:18;;;;;;;0.73;0.38;;;;;;;20.81;57.54;101649.47;6176043;28;20055;-76
2022/07/04 11:31:21;;;;;;;1.35;0.40;;;;;;;20.74;58.73;101644.63;6175948;28;20395;-76
2022/07/04 11:34:23;;;;;;;1.70;0.40;;;;;;;21.10;56.94;101642.53;6175638;28;20061;-76
2022/07/04 11:37:25;;;;;;;0.30;0.30;;;;;;;20.84;58.21;101639.34;6175765;28;20058;-76
2022/07/04 11:47:33;;;;;;;0.30;0.30;;;;;;;20.94;58.99;101631.47;6199969;28;20050;-75
2022/07/04 11:50:34;;;;;;;1.08;0.40;;;;;;;21.66;57.04;101625.38;6201634;28;20057;-76
2022/07/04 11:53:35;;;;;;;1.02;0.50;;;;;;;22.19;53.32;101626.06;6198559;28;20513;-74
2022/07/04 11:56:37;;;;;;;0.82;0.57;;;;;;;21.81;55.45;101620.53;6198737;28;20054;-74
2022/07/04 11:59:38;;;;;;;0.30;0.30;;;;;;;21.50;56.21;101618.66;6198551;28;20418;-74
2022/07/04 12:02:42;;;;;;;0.77;0.40;;;;;;;21.39;54.80;101618.75;6198817;28;20059;-73
2022/07/04 12:05:46;;;;;;;0.82;0.40;;;;;;;21.40;55.12;101624.94;6198940;28;20491;-75
2022/07/04 12:08:47;;;;;;;2.78;0.75;;;;;;;21.34;55.76;101631.63;6198980;28;20050;-75
2022/07/04 12:11:54;;;;;;;0.45;0.40;;;;;;;21.81;53.71;101624.06;6199020;28;20520;-74
2022/07/04 12:15:00;;;;;;;0.43;0.43;;;;;;;22.87;51.05;101615.47;6198520;28;20050;-75
2022/07/04 12:18:05;;;;;;;0.38;0.38;;;;;;;23.70;47.41;101608.63;6200658;28;20413;-77
2022/07/04 12:21:18;;;;;;;0.47;0.45;;;;;;;24.39;44.75;101612.75;6200940;28;20054;-77
2022/07/04 12:24:20;;;;;;;0.80;0.45;;;;;;;24.93;41.84;101597.47;6199576;28;20061;-75
2022/07/04 12:27:21;;;;;;;0.25;0.20;;;;;;;25.07;41.01;101596.06;6198428;28;20072;-74
2022/07/04 12:30:23;;;;;;;1.77;0.38;;;;;;;25.13;39.69;101590.13;6198653;28;20597;-74
2022/07/04 12:33:27;;;;;;;0.65;0.30;;;;;;;24.66;40.06;101579.56;6218910;28;20425;-75
2022/07/04 12:36:29;;;;;;;0.20;0.20;;;;;;;23.85;42.72;101589.41;6222580;28;20054;-75
2022/07/04 12:39:31;;;;;;;0.40;0.40;;;;;;;23.25;43.60;101585.13;6222920;28;20053;-75
2022/07/04 12:42:33;;;;;;;0.30;0.20;;;;;;;23.12;44.32;101578.38;6222587;28;20050;-74
2022/07/04 12:45:45;;;;;;;0.40;0.40;;;;;;;23.01;44.00;101576.69;6222588;28;20045;-74
2022/07/04 12:48:50;;;;;;;0.95;0.47;;;;;;;23.23;43.87;101576.38;6222903;28;20050;-77
2022/07/04 12:51:52;;;;;;;0.65;0.30;;;;;;;23.21;44.28;101578.38;6222940;28;20045;-75
2022/07/04 12:55:04;;;;;;;0.40;0.40;;;;;;;23.50;44.05;101575.63;6185458;28;20418;-75
2022/07/04 12:58:05;;;;;;;2.08;0.45;;;;;;;24.17;43.04;101570.16;6196822;28;20049;-76
2022/07/04 13:01:06;;;;;;;0.40;0.40;;;;;;;24.76;40.44;101561.56;6197666;28;20050;-75
2022/07/04 13:04:10;;;;;;;1.33;0.30;;;;;;;25.16;40.85;101553.97;6197696;28;20046;-75
2022/07/04 13:07:17;;;;;;;0.50;0.30;;;;;;;25.59;40.49;101560.31;6197930;28;20046;-76
2022/07/04 13:10:18;;;;;;;0.45;0.30;;;;;;;24.78;40.03;101556.00;6191545;28;20421;-76
2022/07/04 13:13:20;;;;;;;0.28;0.28;;;;;;;24.06;40.23;101571.19;6197593;28;20058;-74
2022/07/04 13:16:21;;;;;;;0.50;0.30;;;;;;;23.51;42.49;101563.91;6197646;28;20050;-75
2022/07/04 13:19:24;;;;;;;0.55;0.40;;;;;;;23.20;42.85;101571.31;6196145;28;20051;-75
2022/07/04 13:22:25;;;;;;;0.30;0.30;;;;;;;23.66;44.56;101571.50;6196949;28;20506;-74
2022/07/04 13:25:26;;;;;;;0.20;0.20;;;;;;;23.86;41.00;101564.22;6197689;28;20046;-75
2022/07/04 13:28:28;;;;;;;0.55;0.50;;;;;;;23.71;41.92;101579.94;6197555;28;20429;-75
2022/07/04 13:31:29;;;;;;;0.40;0.30;;;;;;;23.95;41.59;101569.56;6197530;28;20490;-75
2022/07/04 13:34:32;;;;;;;1.10;0.35;;;;;;;24.36;40.81;101569.19;6197446;28;20418;-76
2022/07/04 13:37:33;;;;;;;0.50;0.40;;;;;;;24.64;40.04;101559.25;6197712;28;20058;-76
2022/07/04 13:40:36;;;;;;;0.38;0.38;;;;;;;24.52;40.33;101555.94;6198061;28;20057;-76
2022/07/04 13:43:38;;;;;;;0.55;0.40;;;;;;;24.17;41.61;101562.94;6197638;28;20042;-75
2022/07/04 13:46:39;;;;;;;2.50;0.57;;;;;;;23.85;41.75;101566.06;6184528;28;20066;-74
2022/07/04 13:49:42;;;;;;;0.30;0.30;;;;;;;23.49;42.73;101562.38;6197250;28;20394;-73
2022/07/04 13:52:44;;;;;;;0.93;0.55;;;;;;;23.26;42.98;101562.69;6195751;28;20047;-73
2022/07/04 13:55:45;;;;;;;0.98;0.35;;;;;;;23.20;44.14;101570.47;6178700;28;20130;-73
2022/07/04 13:58:48;;;;;;;1.67;0.15;;;;;;;23.83;44.12;101561.84;6197515;28;20458;-77
2022/07/04 14:01:50;;;;;;;0.52;0.47;;;;;;;23.91;42.61;101560.09;6197056;28;20078;-75
2022/07/04 14:04:52;;;;;;;0.82;0.68;;;;;;;24.00;43.26;101561.03;6197372;28;20550;-75
2022/07/04 14:07:54;;;;;;;0.25;0.25;;;;;;;24.30;43.26;101551.84;6196969;28;20058;-76
2022/07/04 14:10:55;;;;;;;1.00;0.40;;;;;;;24.23;42.01;101548.88;6197415;28;20050;-75
2022/07/04 14:13:57;;;;;;;0.82;0.60;;;;;;;24.03;43.17;101561.59;6196121;28;20046;-74
2022/07/04 14:16:58;;;;;;;0.40;0.30;;;;;;;23.79;43.12;101556.75;6197022;28;20061;-74
2022/07/04 14:20:01;;;;;;;2.55;0.30;;;;;;;23.68;42.44;101562.31;6196945;28;20081;-74
2022/07/04 14:23:02;;;;;;;0.30;0.30;;;;;;;23.59;44.99;101547.06;6194226;28;20047;-75
2022/07/04 14:26:04;;;;;;;0.60;0.40;;;;;;;23.64;46.54;101550.19;6200899;28;20498;-75